sensor_id;sensor_type;location;lat;lon;timestamp;P1;durP1;ratioP1;P2;durP2;ratioP2
3865;SDS011;1948;53.250;10.412;2022-12-10T00:01:41;14.23;;;8.70;;
3865;SDS011;1948;53.250;10.412;2022-12-10T00:04:10;16.40;;;9.00;;
3865;SDS011;1948;53.250;10.412;2022-12-10T00:06:38;14.83;;;8.80;;
3865;SDS011;1948;53.250;10.412;2022-12-10T00:09:10;15.67;;;8.97;;
3865;SDS011;1948;53.250;10.412;2022-12-10T00:11:40;15.40;;;9.30;;
3865;SDS011;1948;53.250;10.412;2022-12-10T00:14:08;16.07;;;10.43;;
3865;SDS011;1948;53.250;10.412;2022-12-10T00:16:37;17.80;;;10.03;;
3865;SDS011;1948;53.250;10.412;2022-12-10T00:19:05;19.10;;;10.67;;
3865;SDS011;1948;53.250;10.412;2022-12-10T00:21:33;17.23;;;10.03;;
3865;SDS011;1948;53.250;10.412;2022-12-10T00:24:06;19.47;;;11.17;;
3865;SDS011;1948;53.250;10.412;2022-12-10T00:26:37;21.80;;;11.40;;
3865;SDS011;1948;53.250;10.412;2022-12-10T00:29:07;24.53;;;11.57;;
3865;SDS011;1948;53.250;10.412;2022-12-10T00:31:37;21.77;;;10.77;;
3865;SDS011;1948;53.250;10.412;2022-12-10T00:34:06;18.63;;;10.37;;
3865;SDS011;1948;53.250;10.412;2022-12-10T00:36:36;19.60;;;10.97;;
3865;SDS011;1948;53.250;10.412;2022-12-10T00:39:11;18.50;;;10.30;;
3865;SDS011;1948;53.250;10.412;2022-12-10T00:41:40;20.93;;;10.63;;
3865;SDS011;1948;53.250;10.412;2022-12-10T00:44:07;20.40;;;10.50;;
3865;SDS011;1948;53.250;10.412;2022-12-10T00:46:34;17.00;;;10.23;;
3865;SDS011;1948;53.250;10.412;2022-12-10T00:49:02;21.87;;;11.80;;
3865;SDS011;1948;53.250;10.412;2022-12-10T00:51:31;21.07;;;11.70;;
3865;SDS011;1948;53.250;10.412;2022-12-10T00:54:00;19.40;;;10.67;;
3865;SDS011;1948;53.250;10.412;2022-12-10T00:56:31;18.23;;;9.97;;
3865;SDS011;1948;53.250;10.412;2022-12-10T00:58:59;15.57;;;10.20;;
3865;SDS011;1948;53.250;10.412;2022-12-10T01:01:41;16.87;;;9.40;;
3865;SDS011;1948;53.250;10.412;2022-12-10T01:04:10;19.90;;;10.27;;
3865;SDS011;1948;53.250;10.412;2022-12-10T01:07:01;16.83;;;10.10;;
3865;SDS011;1948;53.250;10.412;2022-12-10T01:09:36;21.10;;;10.50;;
3865;SDS011;1948;53.250;10.412;2022-12-10T01:12:05;23.43;;;10.27;;
3865;SDS011;1948;53.250;10.412;2022-12-10T01:14:33;18.83;;;10.37;;
3865;SDS011;1948;53.250;10.412;2022-12-10T01:17:01;15.50;;;9.17;;
3865;SDS011;1948;53.250;10.412;2022-12-10T01:19:33;19.00;;;10.20;;
3865;SDS011;1948;53.250;10.412;2022-12-10T01:22:03;12.83;;;7.93;;
3865;SDS011;1948;53.250;10.412;2022-12-10T01:24:32;12.70;;;8.37;;
3865;SDS011;1948;53.250;10.412;2022-12-10T01:27:02;16.37;;;9.67;;
3865;SDS011;1948;53.250;10.412;2022-12-10T01:29:31;11.37;;;7.00;;
3865;SDS011;1948;53.250;10.412;2022-12-10T01:32:00;7.13;;;6.50;;
3865;SDS011;1948;53.250;10.412;2022-12-10T01:34:28;7.97;;;6.43;;
3865;SDS011;1948;53.250;10.412;2022-12-10T01:36:58;7.23;;;6.30;;
3865;SDS011;1948;53.250;10.412;2022-12-10T01:39:26;9.63;;;7.50;;
3865;SDS011;1948;53.250;10.412;2022-12-10T01:41:55;12.63;;;8.37;;
3865;SDS011;1948;53.250;10.412;2022-12-10T01:46:59;8.63;;;6.90;;
3865;SDS011;1948;53.250;10.412;2022-12-10T01:49:34;9.60;;;7.30;;
3865;SDS011;1948;53.250;10.412;2022-12-10T01:52:07;7.90;;;6.80;;
3865;SDS011;1948;53.250;10.412;2022-12-10T01:54:44;8.17;;;6.37;;
3865;SDS011;1948;53.250;10.412;2022-12-10T01:57:16;8.43;;;6.90;;
3865;SDS011;1948;53.250;10.412;2022-12-10T01:59:58;12.30;;;7.57;;
3865;SDS011;1948;53.250;10.412;2022-12-10T02:08:40;10.30;;;6.77;;
3865;SDS011;1948;53.250;10.412;2022-12-10T02:17:40;9.47;;;8.13;;
3865;SDS011;1948;53.250;10.412;2022-12-10T02:23:30;10.57;;;7.23;;
3865;SDS011;1948;53.250;10.412;2022-12-10T02:26:23;8.73;;;7.20;;
3865;SDS011;1948;53.250;10.412;2022-12-10T02:29:37;11.90;;;8.20;;
3865;SDS011;1948;53.250;10.412;2022-12-10T02:32:14;13.63;;;9.20;;
3865;SDS011;1948;53.250;10.412;2022-12-10T02:34:49;14.90;;;10.00;;
3865;SDS011;1948;53.250;10.412;2022-12-10T02:37:22;15.17;;;9.60;;
3865;SDS011;1948;53.250;10.412;2022-12-10T02:40:08;12.40;;;8.87;;
3865;SDS011;1948;53.250;10.412;2022-12-10T02:42:47;16.97;;;10.30;;
3865;SDS011;1948;53.250;10.412;2022-12-10T02:45:18;18.00;;;10.97;;
3865;SDS011;1948;53.250;10.412;2022-12-10T02:47:50;18.50;;;11.60;;
3865;SDS011;1948;53.250;10.412;2022-12-10T02:50:20;19.63;;;12.03;;
3865;SDS011;1948;53.250;10.412;2022-12-10T02:52:48;20.57;;;12.47;;
3865;SDS011;1948;53.250;10.412;2022-12-10T02:55:16;30.43;;;12.83;;
3865;SDS011;1948;53.250;10.412;2022-12-10T03:01:02;24.30;;;12.70;;
3865;SDS011;1948;53.250;10.412;2022-12-10T03:03:50;28.27;;;12.83;;
3865;SDS011;1948;53.250;10.412;2022-12-10T03:06:30;30.03;;;14.30;;
3865;SDS011;1948;53.250;10.412;2022-12-10T03:09:16;30.87;;;14.50;;
3865;SDS011;1948;53.250;10.412;2022-12-10T03:12:21;24.53;;;13.57;;
3865;SDS011;1948;53.250;10.412;2022-12-10T03:15:08;35.40;;;14.40;;
3865;SDS011;1948;53.250;10.412;2022-12-10T03:17:38;31.33;;;14.17;;
3865;SDS011;1948;53.250;10.412;2022-12-10T03:20:08;31.87;;;14.60;;
3865;SDS011;1948;53.250;10.412;2022-12-10T03:22:44;33.60;;;15.43;;
3865;SDS011;1948;53.250;10.412;2022-12-10T03:25:13;34.60;;;16.40;;
3865;SDS011;1948;53.250;10.412;2022-12-10T03:27:50;37.03;;;15.80;;
3865;SDS011;1948;53.250;10.412;2022-12-10T03:30:24;28.93;;;15.60;;
3865;SDS011;1948;53.250;10.412;2022-12-10T03:33:00;32.37;;;16.03;;
3865;SDS011;1948;53.250;10.412;2022-12-10T03:35:29;31.37;;;15.67;;
3865;SDS011;1948;53.250;10.412;2022-12-10T03:38:03;34.93;;;16.70;;
3865;SDS011;1948;53.250;10.412;2022-12-10T03:40:30;33.70;;;16.07;;
3865;SDS011;1948;53.250;10.412;2022-12-10T03:42:58;28.17;;;14.47;;
3865;SDS011;1948;53.250;10.412;2022-12-10T03:45:26;31.57;;;15.83;;
3865;SDS011;1948;53.250;10.412;2022-12-10T03:47:57;29.67;;;14.57;;
3865;SDS011;1948;53.250;10.412;2022-12-10T03:50:28;27.50;;;14.90;;
3865;SDS011;1948;53.250;10.412;2022-12-10T03:52:58;28.03;;;14.70;;
3865;SDS011;1948;53.250;10.412;2022-12-10T03:55:25;29.80;;;15.27;;
3865;SDS011;1948;53.250;10.412;2022-12-10T03:57:59;27.27;;;14.90;;
3865;SDS011;1948;53.250;10.412;2022-12-10T04:00:26;33.20;;;16.40;;
3865;SDS011;1948;53.250;10.412;2022-12-10T04:02:53;27.60;;;13.70;;
3865;SDS011;1948;53.250;10.412;2022-12-10T04:05:24;29.80;;;15.63;;
3865;SDS011;1948;53.250;10.412;2022-12-10T04:07:52;27.03;;;15.13;;
3865;SDS011;1948;53.250;10.412;2022-12-10T04:10:25;33.93;;;14.63;;
3865;SDS011;1948;53.250;10.412;2022-12-10T04:12:52;31.30;;;15.20;;
3865;SDS011;1948;53.250;10.412;2022-12-10T04:15:41;34.70;;;14.60;;
3865;SDS011;1948;53.250;10.412;2022-12-10T04:18:27;31.70;;;15.10;;
3865;SDS011;1948;53.250;10.412;2022-12-10T04:20:59;29.63;;;15.60;;
3865;SDS011;1948;53.250;10.412;2022-12-10T04:23:48;29.10;;;14.60;;
3865;SDS011;1948;53.250;10.412;2022-12-10T04:26:34;26.37;;;14.03;;
3865;SDS011;1948;53.250;10.412;2022-12-10T04:29:23;26.23;;;14.20;;
3865;SDS011;1948;53.250;10.412;2022-12-10T04:31:57;32.57;;;14.60;;
3865;SDS011;1948;53.250;10.412;2022-12-10T04:34:30;33.43;;;17.13;;
3865;SDS011;1948;53.250;10.412;2022-12-10T04:37:03;32.73;;;15.00;;
3865;SDS011;1948;53.250;10.412;2022-12-10T04:39:31;33.77;;;15.30;;
3865;SDS011;1948;53.250;10.412;2022-12-10T04:42:05;36.20;;;16.10;;
3865;SDS011;1948;53.250;10.412;2022-12-10T04:44:37;30.50;;;15.77;;
3865;SDS011;1948;53.250;10.412;2022-12-10T04:47:06;28.20;;;15.00;;
3865;SDS011;1948;53.250;10.412;2022-12-10T04:49:36;26.70;;;14.27;;
3865;SDS011;1948;53.250;10.412;2022-12-10T04:52:05;26.07;;;14.87;;
3865;SDS011;1948;53.250;10.412;2022-12-10T04:54:39;27.13;;;14.53;;
3865;SDS011;1948;53.250;10.412;2022-12-10T04:57:13;34.93;;;16.53;;
3865;SDS011;1948;53.250;10.412;2022-12-10T04:59:41;25.20;;;13.57;;
3865;SDS011;1948;53.250;10.412;2022-12-10T05:02:14;29.30;;;15.17;;
3865;SDS011;1948;53.250;10.412;2022-12-10T05:04:42;28.40;;;14.93;;
3865;SDS011;1948;53.250;10.412;2022-12-10T05:07:10;29.07;;;15.70;;
3865;SDS011;1948;53.250;10.412;2022-12-10T05:09:38;26.57;;;13.77;;
3865;SDS011;1948;53.250;10.412;2022-12-10T05:12:06;28.60;;;14.77;;
3865;SDS011;1948;53.250;10.412;2022-12-10T05:14:35;30.20;;;13.80;;
3865;SDS011;1948;53.250;10.412;2022-12-10T05:17:03;27.57;;;13.70;;
3865;SDS011;1948;53.250;10.412;2022-12-10T05:19:30;29.90;;;14.93;;
3865;SDS011;1948;53.250;10.412;2022-12-10T05:21:59;27.07;;;13.83;;
3865;SDS011;1948;53.250;10.412;2022-12-10T05:24:45;29.90;;;15.23;;
3865;SDS011;1948;53.250;10.412;2022-12-10T05:27:12;26.40;;;13.70;;
3865;SDS011;1948;53.250;10.412;2022-12-10T05:29:42;24.30;;;13.07;;
3865;SDS011;1948;53.250;10.412;2022-12-10T05:32:09;28.63;;;15.50;;
3865;SDS011;1948;53.250;10.412;2022-12-10T05:34:39;18.23;;;10.10;;
3865;SDS011;1948;53.250;10.412;2022-12-10T05:37:09;24.80;;;13.30;;
3865;SDS011;1948;53.250;10.412;2022-12-10T05:39:37;21.43;;;13.20;;
3865;SDS011;1948;53.250;10.412;2022-12-10T05:42:04;24.00;;;13.27;;
3865;SDS011;1948;53.250;10.412;2022-12-10T05:44:31;19.83;;;11.93;;
3865;SDS011;1948;53.250;10.412;2022-12-10T05:47:01;23.53;;;12.73;;
3865;SDS011;1948;53.250;10.412;2022-12-10T05:49:29;19.13;;;10.63;;
3865;SDS011;1948;53.250;10.412;2022-12-10T05:51:56;20.20;;;12.00;;
3865;SDS011;1948;53.250;10.412;2022-12-10T05:54:23;27.63;;;14.43;;
3865;SDS011;1948;53.250;10.412;2022-12-10T05:56:50;28.43;;;14.57;;
3865;SDS011;1948;53.250;10.412;2022-12-10T05:59:18;33.60;;;14.60;;
3865;SDS011;1948;53.250;10.412;2022-12-10T06:01:45;25.70;;;14.50;;
3865;SDS011;1948;53.250;10.412;2022-12-10T06:04:13;30.60;;;14.90;;
3865;SDS011;1948;53.250;10.412;2022-12-10T06:06:40;28.40;;;14.50;;
3865;SDS011;1948;53.250;10.412;2022-12-10T06:09:12;29.40;;;14.90;;
3865;SDS011;1948;53.250;10.412;2022-12-10T06:11:40;33.50;;;14.67;;
3865;SDS011;1948;53.250;10.412;2022-12-10T06:14:09;28.07;;;13.03;;
3865;SDS011;1948;53.250;10.412;2022-12-10T06:16:38;29.83;;;14.47;;
3865;SDS011;1948;53.250;10.412;2022-12-10T06:19:06;28.20;;;14.17;;
3865;SDS011;1948;53.250;10.412;2022-12-10T06:21:34;34.20;;;15.20;;
3865;SDS011;1948;53.250;10.412;2022-12-10T06:24:01;28.73;;;14.10;;
3865;SDS011;1948;53.250;10.412;2022-12-10T06:26:28;26.80;;;13.83;;
3865;SDS011;1948;53.250;10.412;2022-12-10T06:28:55;25.30;;;13.47;;
3865;SDS011;1948;53.250;10.412;2022-12-10T06:31:23;34.80;;;16.07;;
3865;SDS011;1948;53.250;10.412;2022-12-10T06:33:50;29.80;;;15.07;;
3865;SDS011;1948;53.250;10.412;2022-12-10T06:36:19;35.20;;;16.77;;
3865;SDS011;1948;53.250;10.412;2022-12-10T06:38:47;29.23;;;15.10;;
3865;SDS011;1948;53.250;10.412;2022-12-10T06:41:16;27.23;;;14.40;;
3865;SDS011;1948;53.250;10.412;2022-12-10T06:43:47;30.13;;;14.73;;
3865;SDS011;1948;53.250;10.412;2022-12-10T06:46:18;34.00;;;14.33;;
3865;SDS011;1948;53.250;10.412;2022-12-10T06:48:47;35.33;;;14.93;;
3865;SDS011;1948;53.250;10.412;2022-12-10T06:51:14;36.30;;;15.50;;
3865;SDS011;1948;53.250;10.412;2022-12-10T06:53:45;29.30;;;14.43;;
3865;SDS011;1948;53.250;10.412;2022-12-10T06:56:17;32.83;;;14.67;;
3865;SDS011;1948;53.250;10.412;2022-12-10T06:58:46;32.40;;;14.43;;
3865;SDS011;1948;53.250;10.412;2022-12-10T07:03:51;33.80;;;15.90;;
3865;SDS011;1948;53.250;10.412;2022-12-10T07:06:21;37.33;;;16.40;;
3865;SDS011;1948;53.250;10.412;2022-12-10T07:08:50;30.47;;;14.00;;
3865;SDS011;1948;53.250;10.412;2022-12-10T07:11:20;33.20;;;14.47;;
3865;SDS011;1948;53.250;10.412;2022-12-10T07:13:51;28.73;;;13.50;;
3865;SDS011;1948;53.250;10.412;2022-12-10T07:16:22;36.30;;;14.70;;
3865;SDS011;1948;53.250;10.412;2022-12-10T07:18:53;27.87;;;13.43;;
3865;SDS011;1948;53.250;10.412;2022-12-10T07:21:30;36.07;;;15.77;;
3865;SDS011;1948;53.250;10.412;2022-12-10T07:24:02;34.00;;;15.53;;
3865;SDS011;1948;53.250;10.412;2022-12-10T07:26:37;31.97;;;14.00;;
3865;SDS011;1948;53.250;10.412;2022-12-10T07:29:09;34.10;;;14.80;;
3865;SDS011;1948;53.250;10.412;2022-12-10T07:31:45;28.47;;;14.87;;
3865;SDS011;1948;53.250;10.412;2022-12-10T07:34:17;28.67;;;14.13;;
3865;SDS011;1948;53.250;10.412;2022-12-10T07:36:44;25.77;;;13.17;;
3865;SDS011;1948;53.250;10.412;2022-12-10T07:39:12;35.00;;;14.77;;
3865;SDS011;1948;53.250;10.412;2022-12-10T07:41:49;31.40;;;13.97;;
3865;SDS011;1948;53.250;10.412;2022-12-10T07:44:22;33.17;;;15.43;;
3865;SDS011;1948;53.250;10.412;2022-12-10T07:46:52;30.50;;;14.60;;
3865;SDS011;1948;53.250;10.412;2022-12-10T07:49:21;29.30;;;14.20;;
3865;SDS011;1948;53.250;10.412;2022-12-10T07:51:49;34.57;;;15.07;;
3865;SDS011;1948;53.250;10.412;2022-12-10T07:54:18;29.67;;;14.13;;
3865;SDS011;1948;53.250;10.412;2022-12-10T07:56:46;29.63;;;13.67;;
3865;SDS011;1948;53.250;10.412;2022-12-10T07:59:13;30.70;;;15.10;;
3865;SDS011;1948;53.250;10.412;2022-12-10T08:01:41;32.77;;;15.00;;
3865;SDS011;1948;53.250;10.412;2022-12-10T08:04:08;29.80;;;13.00;;
3865;SDS011;1948;53.250;10.412;2022-12-10T08:06:35;25.47;;;13.57;;
3865;SDS011;1948;53.250;10.412;2022-12-10T08:09:02;28.27;;;14.17;;
3865;SDS011;1948;53.250;10.412;2022-12-10T08:11:30;25.37;;;13.50;;
3865;SDS011;1948;53.250;10.412;2022-12-10T08:13:58;29.57;;;14.27;;
3865;SDS011;1948;53.250;10.412;2022-12-10T08:16:27;27.90;;;13.90;;
3865;SDS011;1948;53.250;10.412;2022-12-10T08:18:58;24.40;;;12.87;;
3865;SDS011;1948;53.250;10.412;2022-12-10T08:21:30;22.63;;;13.30;;
3865;SDS011;1948;53.250;10.412;2022-12-10T08:23:59;23.80;;;13.17;;
3865;SDS011;1948;53.250;10.412;2022-12-10T08:26:28;21.60;;;11.87;;
3865;SDS011;1948;53.250;10.412;2022-12-10T08:28:58;27.00;;;13.67;;
3865;SDS011;1948;53.250;10.412;2022-12-10T08:31:26;25.13;;;13.17;;
3865;SDS011;1948;53.250;10.412;2022-12-10T08:34:02;22.77;;;13.00;;
3865;SDS011;1948;53.250;10.412;2022-12-10T08:36:31;30.00;;;15.03;;
3865;SDS011;1948;53.250;10.412;2022-12-10T08:38:58;24.07;;;13.33;;
3865;SDS011;1948;53.250;10.412;2022-12-10T08:41:26;27.30;;;13.30;;
3865;SDS011;1948;53.250;10.412;2022-12-10T08:43:53;22.37;;;12.73;;
3865;SDS011;1948;53.250;10.412;2022-12-10T08:46:21;27.10;;;13.70;;
3865;SDS011;1948;53.250;10.412;2022-12-10T08:48:52;22.00;;;13.00;;
3865;SDS011;1948;53.250;10.412;2022-12-10T08:51:25;22.37;;;12.27;;
3865;SDS011;1948;53.250;10.412;2022-12-10T08:53:54;21.37;;;12.47;;
3865;SDS011;1948;53.250;10.412;2022-12-10T08:56:21;21.13;;;12.20;;
3865;SDS011;1948;53.250;10.412;2022-12-10T08:58:49;21.60;;;12.60;;
3865;SDS011;1948;53.250;10.412;2022-12-10T09:01:16;24.10;;;12.53;;
3865;SDS011;1948;53.250;10.412;2022-12-10T09:03:45;21.03;;;11.67;;
3865;SDS011;1948;53.250;10.412;2022-12-10T09:06:14;23.37;;;13.37;;
3865;SDS011;1948;53.250;10.412;2022-12-10T09:08:45;18.30;;;11.70;;
3865;SDS011;1948;53.250;10.412;2022-12-10T09:11:14;24.37;;;13.20;;
3865;SDS011;1948;53.250;10.412;2022-12-10T09:13:45;23.63;;;13.50;;
3865;SDS011;1948;53.250;10.412;2022-12-10T09:16:13;22.23;;;12.47;;
3865;SDS011;1948;53.250;10.412;2022-12-10T09:18:40;22.30;;;12.47;;
3865;SDS011;1948;53.250;10.412;2022-12-10T09:21:11;22.97;;;12.00;;
3865;SDS011;1948;53.250;10.412;2022-12-10T09:23:41;16.90;;;11.20;;
3865;SDS011;1948;53.250;10.412;2022-12-10T09:26:11;19.73;;;11.90;;
3865;SDS011;1948;53.250;10.412;2022-12-10T09:28:41;25.40;;;12.60;;
3865;SDS011;1948;53.250;10.412;2022-12-10T09:31:10;22.27;;;12.43;;
3865;SDS011;1948;53.250;10.412;2022-12-10T09:33:46;19.10;;;11.87;;
3865;SDS011;1948;53.250;10.412;2022-12-10T09:36:16;21.83;;;12.67;;
3865;SDS011;1948;53.250;10.412;2022-12-10T09:38:46;17.60;;;11.50;;
3865;SDS011;1948;53.250;10.412;2022-12-10T09:44:21;25.17;;;12.10;;
3865;SDS011;1948;53.250;10.412;2022-12-10T09:47:20;17.17;;;11.00;;
3865;SDS011;1948;53.250;10.412;2022-12-10T09:52:46;18.53;;;11.10;;
3865;SDS011;1948;53.250;10.412;2022-12-10T09:55:17;20.63;;;11.70;;
3865;SDS011;1948;53.250;10.412;2022-12-10T09:57:54;18.40;;;12.60;;
3865;SDS011;1948;53.250;10.412;2022-12-10T10:00:30;15.73;;;10.20;;
3865;SDS011;1948;53.250;10.412;2022-12-10T10:03:03;16.20;;;9.90;;
3865;SDS011;1948;53.250;10.412;2022-12-10T10:05:38;23.33;;;12.20;;
3865;SDS011;1948;53.250;10.412;2022-12-10T10:11:00;18.70;;;11.97;;
3865;SDS011;1948;53.250;10.412;2022-12-10T10:14:19;19.03;;;11.63;;
3865;SDS011;1948;53.250;10.412;2022-12-10T10:16:39;24.63;;;12.47;;
3865;SDS011;1948;53.250;10.412;2022-12-10T10:19:21;18.97;;;12.03;;
3865;SDS011;1948;53.250;10.412;2022-12-10T10:21:54;22.43;;;12.57;;
3865;SDS011;1948;53.250;10.412;2022-12-10T10:24:25;17.90;;;10.47;;
3865;SDS011;1948;53.250;10.412;2022-12-10T10:27:24;17.70;;;11.53;;
3865;SDS011;1948;53.250;10.412;2022-12-10T10:29:57;18.70;;;11.40;;
3865;SDS011;1948;53.250;10.412;2022-12-10T10:35:22;19.00;;;10.83;;
3865;SDS011;1948;53.250;10.412;2022-12-10T10:38:04;11.77;;;9.00;;
3865;SDS011;1948;53.250;10.412;2022-12-10T10:40:40;14.07;;;9.20;;
3865;SDS011;1948;53.250;10.412;2022-12-10T10:43:18;18.40;;;10.40;;
3865;SDS011;1948;53.250;10.412;2022-12-10T10:46:23;16.50;;;10.50;;
3865;SDS011;1948;53.250;10.412;2022-12-10T10:48:51;18.13;;;11.00;;
3865;SDS011;1948;53.250;10.412;2022-12-10T10:52:04;15.80;;;8.93;;
3865;SDS011;1948;53.250;10.412;2022-12-10T10:54:42;11.90;;;8.43;;
3865;SDS011;1948;53.250;10.412;2022-12-10T10:57:14;13.13;;;9.53;;
3865;SDS011;1948;53.250;10.412;2022-12-10T11:02:45;19.03;;;10.87;;
3865;SDS011;1948;53.250;10.412;2022-12-10T11:05:26;14.20;;;10.53;;
3865;SDS011;1948;53.250;10.412;2022-12-10T11:10:49;15.13;;;10.30;;
3865;SDS011;1948;53.250;10.412;2022-12-10T11:13:25;15.50;;;10.43;;
3865;SDS011;1948;53.250;10.412;2022-12-10T11:16:17;13.87;;;9.00;;
3865;SDS011;1948;53.250;10.412;2022-12-10T11:18:52;15.83;;;10.37;;
3865;SDS011;1948;53.250;10.412;2022-12-10T11:21:29;14.27;;;9.93;;
3865;SDS011;1948;53.250;10.412;2022-12-10T11:24:00;17.10;;;11.20;;
3865;SDS011;1948;53.250;10.412;2022-12-10T11:26:40;10.17;;;8.23;;
3865;SDS011;1948;53.250;10.412;2022-12-10T11:32:20;11.13;;;8.50;;
3865;SDS011;1948;53.250;10.412;2022-12-10T11:38:40;10.93;;;7.90;;
3865;SDS011;1948;53.250;10.412;2022-12-10T11:49:14;14.00;;;8.40;;
3865;SDS011;1948;53.250;10.412;2022-12-10T11:52:27;12.73;;;8.93;;
3865;SDS011;1948;53.250;10.412;2022-12-10T11:55:29;11.73;;;8.90;;
3865;SDS011;1948;53.250;10.412;2022-12-10T11:58:06;17.50;;;9.97;;
3865;SDS011;1948;53.250;10.412;2022-12-10T12:01:34;15.90;;;11.50;;
3865;SDS011;1948;53.250;10.412;2022-12-10T12:09:33;12.90;;;9.37;;
3865;SDS011;1948;53.250;10.412;2022-12-10T12:12:15;19.20;;;11.70;;
3865;SDS011;1948;53.250;10.412;2022-12-10T12:15:13;16.07;;;10.23;;
3865;SDS011;1948;53.250;10.412;2022-12-10T12:17:48;18.40;;;11.53;;
3865;SDS011;1948;53.250;10.412;2022-12-10T12:20:23;19.97;;;12.70;;
3865;SDS011;1948;53.250;10.412;2022-12-10T12:23:29;19.87;;;11.10;;
3865;SDS011;1948;53.250;10.412;2022-12-10T12:26:05;17.83;;;11.00;;
3865;SDS011;1948;53.250;10.412;2022-12-10T12:28:47;14.33;;;10.80;;
3865;SDS011;1948;53.250;10.412;2022-12-10T12:31:34;12.60;;;9.03;;
3865;SDS011;1948;53.250;10.412;2022-12-10T12:34:13;15.00;;;10.37;;
3865;SDS011;1948;53.250;10.412;2022-12-10T12:37:12;14.63;;;9.77;;
3865;SDS011;1948;53.250;10.412;2022-12-10T12:39:46;18.80;;;11.13;;
3865;SDS011;1948;53.250;10.412;2022-12-10T12:42:40;16.77;;;11.17;;
3865;SDS011;1948;53.250;10.412;2022-12-10T12:45:19;19.47;;;11.70;;
3865;SDS011;1948;53.250;10.412;2022-12-10T12:48:01;17.37;;;10.90;;
3865;SDS011;1948;53.250;10.412;2022-12-10T12:51:09;13.10;;;9.63;;
3865;SDS011;1948;53.250;10.412;2022-12-10T12:53:53;15.57;;;9.43;;
3865;SDS011;1948;53.250;10.412;2022-12-10T13:05:16;12.20;;;8.77;;
3865;SDS011;1948;53.250;10.412;2022-12-10T13:13:41;14.57;;;9.57;;
3865;SDS011;1948;53.250;10.412;2022-12-10T13:24:19;15.03;;;9.33;;
3865;SDS011;1948;53.250;10.412;2022-12-10T13:37:53;13.63;;;10.07;;
3865;SDS011;1948;53.250;10.412;2022-12-10T13:43:36;16.10;;;10.67;;
3865;SDS011;1948;53.250;10.412;2022-12-10T13:49:02;11.30;;;8.33;;
3865;SDS011;1948;53.250;10.412;2022-12-10T13:51:39;12.43;;;9.50;;
3865;SDS011;1948;53.250;10.412;2022-12-10T14:05:55;12.40;;;8.90;;
3865;SDS011;1948;53.250;10.412;2022-12-10T14:09:03;13.73;;;9.40;;
3865;SDS011;1948;53.250;10.412;2022-12-10T14:11:50;16.80;;;10.13;;
3865;SDS011;1948;53.250;10.412;2022-12-10T14:14:47;19.03;;;10.00;;
3865;SDS011;1948;53.250;10.412;2022-12-10T14:17:37;13.60;;;9.33;;
3865;SDS011;1948;53.250;10.412;2022-12-10T14:20:08;14.77;;;9.90;;
3865;SDS011;1948;53.250;10.412;2022-12-10T14:22:46;14.87;;;9.70;;
3865;SDS011;1948;53.250;10.412;2022-12-10T14:25:17;12.90;;;9.70;;
3865;SDS011;1948;53.250;10.412;2022-12-10T14:27:52;17.57;;;11.60;;
3865;SDS011;1948;53.250;10.412;2022-12-10T14:30:22;9.80;;;8.17;;
3865;SDS011;1948;53.250;10.412;2022-12-10T14:32:54;13.90;;;9.97;;
3865;SDS011;1948;53.250;10.412;2022-12-10T14:35:24;17.27;;;11.40;;
3865;SDS011;1948;53.250;10.412;2022-12-10T14:37:57;14.97;;;10.10;;
3865;SDS011;1948;53.250;10.412;2022-12-10T14:40:26;15.43;;;10.83;;
3865;SDS011;1948;53.250;10.412;2022-12-10T14:43:06;17.10;;;11.20;;
3865;SDS011;1948;53.250;10.412;2022-12-10T14:45:45;12.63;;;10.37;;
3865;SDS011;1948;53.250;10.412;2022-12-10T14:48:19;15.17;;;10.73;;
3865;SDS011;1948;53.250;10.412;2022-12-10T14:50:52;11.63;;;8.70;;
3865;SDS011;1948;53.250;10.412;2022-12-10T14:53:29;17.23;;;9.73;;
3865;SDS011;1948;53.250;10.412;2022-12-10T14:56:02;14.40;;;9.37;;
3865;SDS011;1948;53.250;10.412;2022-12-10T15:01:29;12.30;;;9.07;;
3865;SDS011;1948;53.250;10.412;2022-12-10T15:04:04;13.90;;;9.70;;
3865;SDS011;1948;53.250;10.412;2022-12-10T15:06:51;12.80;;;9.80;;
3865;SDS011;1948;53.250;10.412;2022-12-10T15:09:25;14.07;;;10.03;;
3865;SDS011;1948;53.250;10.412;2022-12-10T15:11:56;13.60;;;10.10;;
3865;SDS011;1948;53.250;10.412;2022-12-10T15:14:26;16.10;;;11.23;;
3865;SDS011;1948;53.250;10.412;2022-12-10T15:16:55;15.03;;;9.60;;
3865;SDS011;1948;53.250;10.412;2022-12-10T15:21:58;13.33;;;9.63;;
3865;SDS011;1948;53.250;10.412;2022-12-10T15:24:36;14.20;;;10.30;;
3865;SDS011;1948;53.250;10.412;2022-12-10T15:27:18;15.20;;;10.60;;
3865;SDS011;1948;53.250;10.412;2022-12-10T15:29:51;13.13;;;9.90;;
3865;SDS011;1948;53.250;10.412;2022-12-10T15:32:19;16.13;;;9.70;;
3865;SDS011;1948;53.250;10.412;2022-12-10T15:35:01;13.13;;;9.20;;
3865;SDS011;1948;53.250;10.412;2022-12-10T15:37:43;13.40;;;10.57;;
3865;SDS011;1948;53.250;10.412;2022-12-10T15:40:26;12.70;;;9.40;;
3865;SDS011;1948;53.250;10.412;2022-12-10T15:43:09;15.33;;;11.07;;
3865;SDS011;1948;53.250;10.412;2022-12-10T15:45:57;19.03;;;10.90;;
3865;SDS011;1948;53.250;10.412;2022-12-10T15:48:27;21.17;;;12.37;;
3865;SDS011;1948;53.250;10.412;2022-12-10T15:50:58;28.30;;;12.80;;
3865;SDS011;1948;53.250;10.412;2022-12-10T15:53:34;18.70;;;12.50;;
3865;SDS011;1948;53.250;10.412;2022-12-10T15:56:04;20.40;;;11.73;;
3865;SDS011;1948;53.250;10.412;2022-12-10T15:58:31;16.77;;;11.63;;
3865;SDS011;1948;53.250;10.412;2022-12-10T16:00:59;18.23;;;11.70;;
3865;SDS011;1948;53.250;10.412;2022-12-10T16:03:32;18.67;;;11.00;;
3865;SDS011;1948;53.250;10.412;2022-12-10T16:05:59;17.33;;;11.77;;
3865;SDS011;1948;53.250;10.412;2022-12-10T16:08:28;18.33;;;10.70;;
3865;SDS011;1948;53.250;10.412;2022-12-10T16:11:00;17.63;;;11.60;;
3865;SDS011;1948;53.250;10.412;2022-12-10T16:13:45;16.57;;;11.90;;
3865;SDS011;1948;53.250;10.412;2022-12-10T16:16:23;15.60;;;11.20;;
3865;SDS011;1948;53.250;10.412;2022-12-10T16:18:53;13.43;;;10.10;;
3865;SDS011;1948;53.250;10.412;2022-12-10T16:21:20;16.33;;;10.40;;
3865;SDS011;1948;53.250;10.412;2022-12-10T16:23:48;18.50;;;11.30;;
3865;SDS011;1948;53.250;10.412;2022-12-10T16:26:19;17.63;;;11.13;;
3865;SDS011;1948;53.250;10.412;2022-12-10T16:28:50;20.07;;;11.90;;
3865;SDS011;1948;53.250;10.412;2022-12-10T16:31:20;15.30;;;11.10;;
3865;SDS011;1948;53.250;10.412;2022-12-10T16:33:51;16.27;;;9.83;;
3865;SDS011;1948;53.250;10.412;2022-12-10T16:36:18;12.67;;;9.80;;
3865;SDS011;1948;53.250;10.412;2022-12-10T16:38:46;10.10;;;8.70;;
3865;SDS011;1948;53.250;10.412;2022-12-10T16:41:16;14.00;;;10.40;;
3865;SDS011;1948;53.250;10.412;2022-12-10T16:43:48;14.93;;;9.80;;
3865;SDS011;1948;53.250;10.412;2022-12-10T16:46:16;13.57;;;9.90;;
3865;SDS011;1948;53.250;10.412;2022-12-10T16:48:43;15.13;;;10.60;;
3865;SDS011;1948;53.250;10.412;2022-12-10T16:51:15;20.07;;;10.80;;
3865;SDS011;1948;53.250;10.412;2022-12-10T16:53:58;17.20;;;9.70;;
3865;SDS011;1948;53.250;10.412;2022-12-10T16:56:28;12.77;;;9.23;;
3865;SDS011;1948;53.250;10.412;2022-12-10T16:58:56;17.00;;;11.00;;
3865;SDS011;1948;53.250;10.412;2022-12-10T17:01:24;17.03;;;9.17;;
3865;SDS011;1948;53.250;10.412;2022-12-10T17:03:54;11.50;;;9.13;;
3865;SDS011;1948;53.250;10.412;2022-12-10T17:06:21;16.23;;;10.97;;
3865;SDS011;1948;53.250;10.412;2022-12-10T17:08:51;14.40;;;10.17;;
3865;SDS011;1948;53.250;10.412;2022-12-10T17:11:25;13.93;;;10.43;;
3865;SDS011;1948;53.250;10.412;2022-12-10T17:14:28;15.97;;;11.00;;
3865;SDS011;1948;53.250;10.412;2022-12-10T17:17:06;15.60;;;10.47;;